Time;durP1;ratioP1;P1;durP2;ratioP2;P2;SDS_P1;SDS_P2;PMS_P1;PMS_P2;Temp;Humidity;BMP_temperature;BMP_pressure;BME280_temperature;BME280_humidity;BME280_pressure;Samples;Min_cycle;Max_cycle;Signal;HPM_P1;HPM_P2
2023/12/22 00:00:32;;;;;;;2.10;1.17;;;;;;;41.02;22.88;99117.75;7387067;19;20017;-89
2023/12/22 00:02:58;;;;;;;1.23;0.30;;;;;;;41.18;22.67;99109.94;7393651;19;20420;-89
2023/12/22 00:05:24;;;;;;;0.43;0.32;;;;;;;41.30;22.16;99115.22;7395604;19;20007;-88
2023/12/22 00:07:50;;;;;;;9.25;0.65;;;;;;;41.30;22.00;99121.78;7394751;19;20093;-88
2023/12/22 00:10:16;;;;;;;0.30;0.30;;;;;;;41.56;21.92;99113.31;7396312;19;20011;-89
2023/12/22 00:12:42;;;;;;;1.20;1.10;;;;;;;41.79;21.64;99098.97;7398666;19;20078;-89
2023/12/22 00:15:08;;;;;;;0.55;0.55;;;;;;;41.92;21.43;99103.47;7396068;19;20010;-88
2023/12/22 00:19:59;;;;;;;1.25;0.43;;;;;;;40.13;22.99;99106.84;7422257;19;20847;-80
2023/12/22 00:22:25;;;;;;;1.00;0.82;;;;;;;41.28;21.72;99115.91;7424817;19;20367;-81
2023/12/22 00:24:51;;;;;;;13.48;1.10;;;;;;;41.34;21.29;99110.16;7426481;19;20010;-81
2023/12/22 00:27:17;;;;;;;3.13;0.40;;;;;;;41.19;21.55;99105.56;7422696;19;20033;-80
2023/12/22 00:29:43;;;;;;;0.20;0.20;;;;;;;15.85;91.93;99156.72;7423612;19;20376;-81
2023/12/22 00:32:09;;;;;;;0.05;0.05;;;;;;;11.53;100.00;99174.72;7423432;19;20625;-82
2023/12/22 00:34:36;;;;;;;1.27;1.17;;;;;;;21.68;100.00;99148.09;7421989;19;20054;-82
2023/12/22 00:37:04;;;;;;;2.03;0.28;;;;;;;15.34;100.00;99130.47;7422660;19;20469;-81
2023/12/22 00:39:31;;;;;;;6.88;0.30;;;;;;;10.43;100.00;99142.00;7422755;19;20006;-82
2023/12/22 00:41:57;;;;;;;0.65;0.20;;;;;;;9.40;100.00;99134.72;7421924;19;20363;-81
2023/12/22 00:44:25;;;;;;;0.20;0.20;;;;;;;9.01;100.00;99143.22;7421710;19;20037;-81
2023/12/22 00:46:51;;;;;;;0.28;0.28;;;;;;;8.72;100.00;99143.28;7422543;19;20044;-81
2023/12/22 00:49:18;;;;;;;0.50;0.50;;;;;;;8.60;100.00;99149.16;7423514;19;20006;-80
2023/12/22 00:51:44;;;;;;;8.20;0.90;;;;;;;8.53;100.00;99146.75;7423548;19;20453;-81
2023/12/22 00:54:10;;;;;;;1.85;0.70;;;;;;;8.51;100.00;99132.59;7424394;19;20081;-82
2023/12/22 00:56:36;;;;;;;10.63;0.85;;;;;;;8.52;100.00;99143.19;7423263;19;20014;-81
2023/12/22 00:59:02;;;;;;;0.30;0.28;;;;;;;8.55;100.00;99147.03;7421377;19;20018;-82
2023/12/22 01:01:28;;;;;;;2.58;0.73;;;;;;;8.49;100.00;99146.19;7422589;19;20034;-81
2023/12/22 01:03:55;;;;;;;0.75;0.68;;;;;;;8.47;100.00;99132.75;7421608;19;20521;-81
2023/12/22 01:06:21;;;;;;;2.05;0.75;;;;;;;8.38;100.00;99130.09;7420567;19;20006;-81
2023/12/22 01:08:49;;;;;;;4.85;0.52;;;;;;;8.40;100.00;99105.41;7423918;19;20047;-80
2023/12/22 01:11:17;;;;;;;0.52;0.45;;;;;;;8.41;100.00;99123.59;7422009;19;20014;-80
2023/12/22 01:13:43;;;;;;;0.10;0.00;;;;;;;8.51;100.00;99121.50;7423578;19;20011;-81
2023/12/22 01:16:10;;;;;;;0.10;0.10;;;;;;;8.47;100.00;99137.56;7422557;19;20170;-81
2023/12/22 01:18:36;;;;;;;0.40;0.40;;;;;;;8.52;100.00;99140.44;7420140;19;20504;-82
2023/12/22 01:21:02;;;;;;;0.75;0.15;;;;;;;8.49;100.00;99135.81;7422815;19;20010;-81
2023/12/22 01:23:28;;;;;;;0.22;0.00;;;;;;;8.53;100.00;99141.19;7422350;19;20024;-81
2023/12/22 01:25:54;;;;;;;4.35;0.47;;;;;;;8.52;100.00;99126.56;7422381;19;20334;-81
2023/12/22 01:28:20;;;;;;;1.10;0.52;;;;;;;8.52;100.00;99132.09;7421622;19;20011;-82
2023/12/22 01:30:47;;;;;;;0.28;0.28;;;;;;;8.66;100.00;99125.78;7401491;19;20015;-81
2023/12/22 01:33:13;;;;;;;0.30;0.30;;;;;;;8.61;100.00;99126.47;7397071;19;20007;-81
2023/12/22 01:35:39;;;;;;;0.20;0.10;;;;;;;8.93;100.00;99125.44;7393326;19;20011;-81
2023/12/22 01:38:05;;;;;;;2.72;0.90;;;;;;;9.04;100.00;99117.28;7393291;19;20015;-81
2023/12/22 01:40:31;;;;;;;1.08;0.10;;;;;;;8.70;100.00;99118.03;7394190;19;20377;-80
2023/12/22 01:42:57;;;;;;;8.40;0.90;;;;;;;8.64;100.00;99119.94;7394116;19;20014;-81
2023/12/22 01:45:23;;;;;;;0.20;0.15;;;;;;;8.61;100.00;99126.47;7393078;19;20034;-81
2023/12/22 01:47:50;;;;;;;0.10;0.10;;;;;;;8.61;100.00;99123.69;7391744;19;20014;-81
2023/12/22 01:50:16;;;;;;;0.20;0.20;;;;;;;8.62;100.00;99116.88;7396309;19;20039;-81
2023/12/22 01:52:44;;;;;;;0.13;0.13;;;;;;;8.69;100.00;99124.03;7393362;19;20490;-81
2023/12/22 01:55:13;;;;;;;0.10;0.10;;;;;;;8.74;100.00;99112.28;7393972;19;20533;-81
2023/12/22 01:57:41;;;;;;;3.00;1.00;;;;;;;8.60;100.00;99102.72;7390832;19;20454;-81
2023/12/22 02:00:08;;;;;;;0.10;0.10;;;;;;;8.56;100.00;99095.81;7393581;19;20041;-82
2023/12/22 02:02:40;;;;;;;0.22;0.22;;;;;;;8.53;100.00;99086.47;7395239;19;20073;-81
2023/12/22 02:05:09;;;;;;;0.20;0.20;;;;;;;8.53;100.00;99105.91;7392885;19;20784;-81
2023/12/22 02:07:35;;;;;;;0.10;0.00;;;;;;;8.52;100.00;99098.81;7393057;19;20035;-81
2023/12/22 02:10:01;;;;;;;0.20;0.20;;;;;;;8.63;100.00;99093.44;7393213;19;20011;-81
2023/12/22 02:12:27;;;;;;;0.45;0.10;;;;;;;8.55;100.00;99083.97;7391213;19;20365;-81
2023/12/22 02:14:53;;;;;;;0.20;0.20;;;;;;;8.56;100.00;99085.50;7395792;19;20010;-81
2023/12/22 02:17:51;;;;;;;0.10;0.10;;;;;;;8.54;100.00;99087.97;7392499;19;20007;-84
2023/12/22 02:20:18;;;;;;;0.20;0.10;;;;;;;9.00;100.00;99086.19;7394014;19;20010;-91
2023/12/22 02:22:44;;;;;;;0.52;0.20;;;;;;;11.47;100.00;99092.31;7395810;19;20010;-95
2023/12/22 02:25:10;;;;;;;0.82;0.17;;;;;;;23.11;96.52;99064.34;7395143;19;20074;-86
2023/12/22 02:28:01;;;;;;;0.10;0.10;;;;;;;10.28;100.00;99091.25;7391717;19;20018;-84
2023/12/22 02:30:39;;;;;;;0.22;0.10;;;;;;;9.24;100.00;99083.22;7392873;19;20034;-86
2023/12/22 02:33:07;;;;;;;0.10;0.10;;;;;;;10.74;100.00;99070.88;7395028;19;20014;-87
2023/12/22 02:35:36;;;;;;;0.10;0.10;;;;;;;9.38;100.00;99087.16;7392748;19;20011;-86
2023/12/22 02:38:04;;;;;;;0.15;0.08;;;;;;;26.18;75.69;99058.88;7391399;19;20027;-86
2023/12/22 02:40:31;;;;;;;0.10;0.10;;;;;;;11.76;100.00;99081.56;7391911;19;20015;-87
2023/12/22 02:42:58;;;;;;;0.25;0.20;;;;;;;9.81;100.00;99066.72;7390251;19;20395;-87
2023/12/22 02:45:24;;;;;;;0.10;0.00;;;;;;;29.64;70.32;99030.25;7392798;19;20367;-87
2023/12/22 02:47:50;;;;;;;0.15;0.13;;;;;;;33.35;48.79;99032.16;7393417;19;20489;-87
2023/12/22 02:50:17;;;;;;;0.10;0.00;;;;;;;34.45;43.25;99032.41;7393945;19;20006;-86
2023/12/22 02:52:43;;;;;;;2.05;0.15;;;;;;;34.90;39.71;99016.09;7390469;19;20493;-84
2023/12/22 02:55:09;;;;;;;0.68;0.57;;;;;;;34.91;38.47;99019.75;7391418;19;20402;-85
2023/12/22 02:57:35;;;;;;;0.10;0.00;;;;;;;34.58;37.95;99019.94;7389829;19;20021;-87
2023/12/22 03:00:02;;;;;;;0.17;0.17;;;;;;;34.47;36.86;99012.25;7393427;19;20113;-87
2023/12/22 03:02:28;;;;;;;0.10;0.05;;;;;;;34.54;36.63;98987.97;7392791;19;20027;-87
2023/12/22 03:04:54;;;;;;;0.10;0.10;;;;;;;34.48;36.38;99013.75;7392670;19;20006;-87
2023/12/22 03:07:20;;;;;;;0.10;0.10;;;;;;;34.70;36.06;99017.47;7391765;19;20358;-87
2023/12/22 03:09:46;;;;;;;0.10;0.10;;;;;;;34.84;35.66;99003.56;7393636;19;20031;-88
2023/12/22 03:12:12;;;;;;;0.52;0.35;;;;;;;34.80;34.51;99009.19;7393724;19;20014;-88
2023/12/22 03:14:38;;;;;;;0.10;0.10;;;;;;;34.58;35.23;99002.56;7392441;19;20022;-87
2023/12/22 03:17:06;;;;;;;0.05;0.05;;;;;;;14.54;100.00;99043.28;7391611;19;20006;-87
2023/12/22 03:19:33;;;;;;;0.10;0.00;;;;;;;11.22;100.00;99033.41;7393250;19;20043;-87
2023/12/22 03:22:00;;;;;;;0.25;0.10;;;;;;;10.17;100.00;99041.06;7391965;19;20010;-87
2023/12/22 03:24:26;;;;;;;1.23;0.10;;;;;;;9.73;100.00;99035.03;7392426;19;20006;-87
2023/12/22 03:26:52;;;;;;;0.20;0.10;;;;;;;9.52;100.00;99047.44;7390892;19;20011;-86
2023/12/22 03:29:19;;;;;;;1.65;0.40;;;;;;;11.94;nan;99036.47;7393388;19;20082;-86
2023/12/22 03:31:45;;;;;;;4.88;0.35;;;;;;;9.73;nan;99051.72;7391427;19;20032;-88
2023/12/22 03:34:12;;;;;;;1.38;0.63;;;;;;;9.44;nan;99054.66;7390720;19;20018;-86
2023/12/22 03:36:38;;;;;;;0.10;0.10;;;;;;;9.64;nan;99060.19;7392721;19;20002;-88
2023/12/22 03:39:05;;;;;;;1.00;0.40;;;;;;;9.28;nan;99052.44;7391456;19;20053;-88
2023/12/22 03:41:31;;;;;;;0.10;0.10;;;;;;;9.28;nan;99060.78;7389939;19;20018;-87
2023/12/22 03:43:58;;;;;;;1.13;0.75;;;;;;;9.30;nan;99047.16;7390590;19;20014;-86
2023/12/22 03:46:24;;;;;;;0.20;0.20;;;;;;;9.31;nan;99046.69;7391602;19;20023;-87
2023/12/22 03:48:51;;;;;;;0.22;0.22;;;;;;;9.51;nan;99034.78;7390322;19;20032;-88
2023/12/22 03:51:17;;;;;;;0.20;0.20;;;;;;;9.36;nan;99045.22;7393154;19;20018;-87
2023/12/22 03:53:43;;;;;;;0.63;0.50;;;;;;;9.37;nan;99085.66;7390264;19;20003;-88
2023/12/22 03:56:10;;;;;;;1.15;0.38;;;;;;;9.36;nan;99045.22;7391067;19;20010;-88
2023/12/22 03:58:36;;;;;;;0.32;0.20;;;;;;;9.37;nan;99052.31;7388996;19;20018;-87
2023/12/22 04:01:03;;;;;;;0.10;0.10;;;;;;;9.36;nan;99050.75;7389882;19;20002;-87
2023/12/22 04:03:29;;;;;;;0.10;0.00;;;;;;;9.34;nan;99047.72;7389411;19;20054;-86
2023/12/22 04:05:56;;;;;;;0.10;0.10;;;;;;;9.31;nan;99046.69;7390375;19;20066;-87
2023/12/22 04:08:22;;;;;;;0.20;0.20;;;;;;;9.31;nan;99048.69;7389802;19;20756;-87
2023/12/22 04:10:48;;;;;;;0.85;0.70;;;;;;;9.30;nan;99049.94;7390151;19;20007;-87
2023/12/22 04:13:14;;;;;;;2.85;0.55;;;;;;;9.31;nan;99037.59;7391009;19;20018;-86
2023/12/22 04:15:40;;;;;;;0.70;0.47;;;;;;;9.33;nan;99044.19;7389420;19;20035;-87
2023/12/22 04:18:06;;;;;;;0.25;0.25;;;;;;;9.30;nan;99036.03;7389054;19;20018;-85
2023/12/22 04:20:32;;;;;;;2.38;0.40;;;;;;;9.26;nan;99046.59;7389918;19;20037;-85
2023/12/22 04:22:58;;;;;;;7.00;0.90;;;;;;;9.25;nan;99045.09;7383829;19;20493;-86
2023/12/22 04:25:25;;;;;;;3.88;0.60;;;;;;;9.27;nan;99053.72;7385200;19;20018;-86
2023/12/22 04:27:52;;;;;;;3.35;0.40;;;;;;;9.26;nan;99052.16;7383965;19;20371;-86
2023/12/22 04:30:18;;;;;;;9.93;1.25;;;;;;;9.31;nan;99043.91;7383814;19;20014;-85
2023/12/22 04:32:44;;;;;;;0.20;0.20;;;;;;;9.24;nan;99051.88;7383962;19;20010;-84
2023/12/22 04:35:10;;;;;;;0.40;0.30;;;;;;;9.21;nan;99047.28;7385051;19;20009;-87
2023/12/22 04:37:36;;;;;;;3.67;0.47;;;;;;;9.21;nan;99048.06;7387967;19;20039;-86
2023/12/22 04:40:02;;;;;;;0.30;0.30;;;;;;;9.21;nan;99061.19;7391165;19;20023;-87
2023/12/22 04:42:29;;;;;;;4.80;1.05;;;;;;;9.21;nan;99067.50;7389670;19;20015;-87
2023/12/22 04:44:55;;;;;;;0.45;0.45;;;;;;;9.24;nan;99072.09;7389562;19;20006;-87
2023/12/22 04:47:21;;;;;;;2.10;0.68;;;;;;;9.26;nan;99052.94;7388495;19;20513;-85
2023/12/22 04:49:47;;;;;;;0.68;0.43;;;;;;;9.25;nan;99056.22;7388899;19;20062;-84
2023/12/22 04:52:13;;;;;;;3.08;0.30;;;;;;;9.38;nan;99043.47;7388663;19;20453;-84
2023/12/22 04:54:39;;;;;;;0.65;0.10;;;;;;;9.42;nan;99057.91;7390120;19;20613;-84
2023/12/22 04:57:06;;;;;;;3.10;1.02;;;;;;;9.46;nan;99043.84;7389485;19;20029;-84
2023/12/22 04:59:32;;;;;;;0.90;0.40;;;;;;;9.48;nan;99052.44;7386692;19;20100;-84
2023/12/22 05:01:58;;;;;;;0.10;0.00;;;;;;;9.48;nan;99049.66;7389550;19;20507;-85
2023/12/22 05:04:24;;;;;;;0.10;0.10;;;;;;;9.49;nan;99056.72;7387898;19;20077;-85
2023/12/22 05:06:50;;;;;;;0.10;0.10;;;;;;;9.50;nan;99044.38;7396302;19;20014;-85
2023/12/22 05:09:16;;;;;;;0.20;0.20;;;;;;;9.38;nan;99042.69;7396099;19;20045;-84
2023/12/22 05:11:42;;;;;;;1.65;0.22;;;;;;;9.49;nan;99042.84;7393080;19;20032;-85
2023/12/22 05:14:09;;;;;;;9.23;0.43;;;;;;;9.37;nan;99024.53;7395263;19;20014;-86
2023/12/22 05:16:35;;;;;;;0.10;0.00;;;;;;;9.34;nan;99012.38;7393373;19;20354;-85
2023/12/22 05:19:01;;;;;;;2.65;1.13;;;;;;;9.39;nan;99033.13;7397014;19;20015;-85
2023/12/22 05:21:27;;;;;;;0.52;0.43;;;;;;;9.33;nan;99013.63;7393863;19;20015;-85
2023/12/22 05:23:54;;;;;;;1.48;0.22;;;;;;;9.49;nan;99001.16;7394481;19;20018;-85
2023/12/22 05:26:20;;;;;;;7.22;0.32;;;;;;;9.38;nan;98987.13;7394537;19;20819;-84
2023/12/22 05:28:49;;;;;;;0.28;0.28;;;;;;;9.38;nan;99012.13;7395118;19;20079;-85
2023/12/22 05:31:16;;;;;;;1.05;0.28;;;;;;;9.37;nan;99024.53;7394708;19;20353;-85
2023/12/22 05:33:42;;;;;;;0.10;0.10;;;;;;;9.37;nan;99007.84;7395334;19;20007;-84
2023/12/22 05:36:08;;;;;;;0.17;0.10;;;;;;;9.35;nan;99011.13;7393507;19;20007;-84
2023/12/22 05:38:38;;;;;;;0.20;0.20;;;;;;;9.33;nan;99018.41;7394117;19;20091;-84
2023/12/22 05:41:06;;;;;;;6.05;0.45;;;;;;;9.33;nan;99015.63;7395685;19;20010;-84
2023/12/22 05:43:36;;;;;;;1.08;0.25;;;;;;;9.34;nan;99031.03;7394806;19;20502;-84
2023/12/22 05:46:02;;;;;;;3.95;0.22;;;;;;;9.39;nan;98994.22;7395335;19;20110;-85
2023/12/22 05:48:28;;;;;;;0.10;0.00;;;;;;;9.35;nan;99029.81;7392321;19;20048;-85
2023/12/22 05:50:57;;;;;;;0.32;0.30;;;;;;;9.33;nan;99029.53;7397264;19;20018;-85
2023/12/22 05:53:23;;;;;;;3.95;0.45;;;;;;;9.36;nan;99034.88;7393265;19;20022;-86
2023/12/22 05:55:49;;;;;;;2.10;0.40;;;;;;;9.39;nan;99033.13;7394167;19;20400;-85
2023/12/22 05:58:16;;;;;;;1.35;0.52;;;;;;;9.39;nan;99049.81;7395661;19;20034;-85
2023/12/22 06:00:42;;;;;;;1.65;0.43;;;;;;;9.37;nan;99049.53;7398546;19;20014;-86
2023/12/22 06:03:08;;;;;;;0.85;0.65;;;;;;;9.35;nan;99052.03;7393182;19;20481;-85
2023/12/22 06:05:34;;;;;;;14.20;0.35;;;;;;;9.34;nan;99053.25;7394810;19;20018;-86
2023/12/22 06:08:00;;;;;;;0.10;0.00;;;;;;;9.34;nan;99058.81;7395097;19;20063;-86
2023/12/22 06:10:27;;;;;;;1.70;0.70;;;;;;;9.34;nan;99047.72;7393903;19;20002;-85
2023/12/22 06:12:53;;;;;;;0.10;0.00;;;;;;;9.36;nan;99053.53;7393013;19;20007;-85
2023/12/22 06:15:19;;;;;;;0.30;0.20;;;;;;;9.41;nan;99042.50;7393749;19;20035;-85
2023/12/22 06:17:45;;;;;;;0.20;0.20;;;;;;;9.30;nan;99036.03;7393595;19;20066;-86
2023/12/22 06:20:11;;;;;;;1.70;0.93;;;;;;;9.58;nan;99034.34;7393063;19;20014;-86
2023/12/22 06:22:37;;;;;;;6.80;0.43;;;;;;;9.42;nan;99048.84;7391525;19;20043;-85
2023/12/22 06:25:07;;;;;;;8.13;0.38;;;;;;;9.58;nan;99048.25;7394668;19;20541;-87
2023/12/22 06:27:34;;;;;;;0.10;0.10;;;;;;;9.39;nan;99028.34;7393905;19;20007;-86
2023/12/22 06:30:00;;;;;;;0.30;0.20;;;;;;;9.30;nan;99041.59;7393791;19;20081;-86
2023/12/22 06:32:26;;;;;;;0.20;0.20;;;;;;;9.41;nan;99034.19;7396003;19;20031;-85
2023/12/22 06:34:52;;;;;;;0.10;0.00;;;;;;;9.41;nan;99030.63;7397133;19;20006;-86
2023/12/22 06:37:18;;;;;;;1.70;0.70;;;;;;;9.33;nan;99026.75;7395836;19;20479;-85
2023/12/22 06:39:44;;;;;;;1.17;0.90;;;;;;;9.30;nan;99014.59;7396009;19;20014;-85
2023/12/22 06:42:12;;;;;;;6.28;0.77;;;;;;;9.30;nan;99014.59;7394952;19;20458;-86
2023/12/22 06:44:38;;;;;;;5.03;1.52;;;;;;;9.31;nan;99021.69;7392736;19;20508;-86
2023/12/22 06:47:05;;;;;;;3.85;0.32;;;;;;;9.26;nan;99013.28;7393702;19;20469;-86
2023/12/22 06:49:31;;;;;;;1.50;0.45;;;;;;;9.29;nan;99028.97;7394716;19;20014;-86
2023/12/22 06:51:57;;;;;;;1.17;0.35;;;;;;;9.26;nan;99029.94;7392454;19;20457;-87
2023/12/22 06:54:23;;;;;;;1.80;0.73;;;;;;;9.21;nan;99038.97;7392638;19;20361;-86
2023/12/22 06:56:49;;;;;;;0.30;0.20;;;;;;;9.31;nan;99055.03;7393534;19;20006;-85
2023/12/22 06:59:15;;;;;;;4.05;1.23;;;;;;;9.21;nan;99048.06;7392488;19;20027;-85
2023/12/22 07:01:41;;;;;;;0.47;0.10;;;;;;;9.26;nan;99052.16;7392197;19;20025;-85
2023/12/22 07:04:08;;;;;;;1.52;0.75;;;;;;;9.22;nan;99048.84;7392374;19;20049;-86
2023/12/22 07:06:34;;;;;;;0.43;0.35;;;;;;;9.15;nan;99064.66;7389034;19;20011;-86
2023/12/22 07:09:19;;;;;;;0.57;0.25;;;;;;;9.07;nan;99052.41;7391172;19;20085;-85
2023/12/22 07:11:52;;;;;;;1.85;0.70;;;;;;;9.37;nan;99060.63;7389588;19;20457;-85
2023/12/22 07:14:18;;;;;;;0.20;0.20;;;;;;;9.40;nan;99046.53;7391950;19;20018;-85
2023/12/22 07:16:45;;;;;;;0.73;0.52;;;;;;;9.11;nan;99085.56;7390884;19;20074;-85
2023/12/22 07:19:14;;;;;;;2.10;1.15;;;;;;;9.06;nan;99067.56;7392916;19;20007;-83
2023/12/22 07:21:41;;;;;;;0.73;0.32;;;;;;;9.04;nan;99088.75;7391917;19;20010;-84
2023/12/22 07:24:07;;;;;;;0.20;0.20;;;;;;;9.03;nan;99085.19;7392207;19;20041;-84
2023/12/22 07:26:33;;;;;;;1.85;0.88;;;;;;;9.04;nan;99088.75;7390941;19;20018;-86
2023/12/22 07:28:59;;;;;;;3.67;0.80;;;;;;;9.00;nan;99083.41;7390698;19;20022;-83
2023/12/22 07:31:26;;;;;;;1.27;0.50;;;;;;;9.29;nan;99098.44;7389758;19;20035;-83
2023/12/22 07:33:52;;;;;;;0.65;0.52;;;;;;;9.06;nan;99089.78;7389338;19;20027;-82
2023/12/22 07:36:18;;;;;;;0.10;0.10;;;;;;;9.05;nan;99099.34;7388723;19;20012;-83
2023/12/22 07:38:44;;;;;;;0.40;0.30;;;;;;;8.99;nan;99095.75;7388894;19;20006;-83
2023/12/22 07:41:10;;;;;;;0.47;0.10;;;;;;;8.97;nan;99097.47;7390533;19;20010;-83
2023/12/22 07:43:37;;;;;;;0.13;0.10;;;;;;;9.24;nan;99093.56;7390655;19;20091;-83
2023/12/22 07:46:03;;;;;;;1.55;0.43;;;;;;;9.04;nan;99103.41;7390604;19;20025;-83
2023/12/22 07:48:30;;;;;;;0.45;0.30;;;;;;;9.01;nan;99106.34;7388503;19;20465;-83
2023/12/22 07:50:56;;;;;;;0.00;0.00;;;;;;;9.03;nan;99104.63;7390693;19;20041;-82
2023/12/22 07:53:22;;;;;;;0.10;0.10;;;;;;;9.05;nan;99113.25;7389135;19;20010;-83
2023/12/22 07:55:48;;;;;;;0.25;0.22;;;;;;;9.09;nan;99111.06;7391052;19;20026;-83
2023/12/22 07:58:14;;;;;;;0.20;0.20;;;;;;;9.24;nan;99115.78;7389423;19;20014;-82
2023/12/22 08:00:40;;;;;;;0.20;0.20;;;;;;;9.13;nan;99127.50;7391374;19;20006;-88
2023/12/22 08:03:06;;;;;;;1.20;0.35;;;;;;;9.11;nan;99107.78;7389282;19;20014;-85
2023/12/22 08:05:33;;;;;;;0.10;0.10;;;;;;;9.13;nan;99124.72;7391159;19;20006;-85
2023/12/22 08:07:59;;;;;;;1.73;0.50;;;;;;;9.10;nan;99126.47;7390474;19;20002;-84
2023/12/22 08:10:27;;;;;;;0.30;0.30;;;;;;;9.12;nan;99118.41;7387833;19;20018;-83
2023/12/22 08:12:53;;;;;;;0.35;0.25;;;;;;;9.11;nan;99147.44;7388894;19;20007;-83
2023/12/22 08:15:19;;;;;;;0.75;0.20;;;;;;;9.18;nan;99127.56;7387498;19;19999;-84
2023/12/22 08:17:47;;;;;;;0.10;0.10;;;;;;;9.36;nan;99140.44;7388742;19;20017;-85
2023/12/22 08:20:21;;;;;;;2.58;0.95;;;;;;;9.16;nan;99123.75;7390595;19;20023;-84
2023/12/22 08:22:49;;;;;;;0.20;0.20;;;;;;;10.23;nan;99117.00;7389006;19;20011;-84
2023/12/22 08:25:15;;;;;;;0.10;0.00;;;;;;;9.98;nan;99131.63;7390692;19;20014;-84
2023/12/22 08:27:42;;;;;;;10.10;0.80;;;;;;;10.13;nan;99112.84;7389556;19;20441;-83
2023/12/22 08:30:09;;;;;;;0.10;0.10;;;;;;;10.18;nan;99142.75;7389440;19;20625;-86
2023/12/22 08:32:35;;;;;;;0.20;0.20;;;;;;;10.31;nan;99134.78;7390166;19;20059;-85
2023/12/22 08:35:01;;;;;;;8.90;0.35;;;;;;;10.63;nan;99139.13;7389641;19;20024;-85
2023/12/22 08:37:27;;;;;;;0.10;0.00;;;;;;;11.14;nan;99141.03;7392160;19;20022;-84
2023/12/22 08:39:53;;;;;;;2.50;0.40;;;;;;;10.08;nan;99144.13;7394320;19;20010;-85
2023/12/22 08:42:19;;;;;;;0.10;0.10;;;;;;;9.83;nan;99139.31;7402898;19;20015;-85
2023/12/22 08:44:45;;;;;;;1.58;0.63;;;;;;;9.73;nan;99157.34;7396642;19;20102;-84
2023/12/22 08:47:12;;;;;;;0.35;0.35;;;;;;;9.44;nan;99160.28;7396115;19;20022;-83
2023/12/22 08:49:38;;;;;;;0.70;0.10;;;;;;;9.37;nan;99164.22;7395382;19;20091;-83
2023/12/22 08:52:04;;;;;;;0.10;0.00;;;;;;;9.58;nan;99159.44;7395165;19;20517;-83
2023/12/22 08:54:30;;;;;;;0.20;0.20;;;;;;;9.64;nan;99149.91;7392848;19;20007;-84
2023/12/22 08:56:56;;;;;;;0.10;0.10;;;;;;;10.19;nan;99171.34;7395358;19;20457;-84
2023/12/22 08:59:22;;;;;;;0.30;0.25;;;;;;;10.19;nan;99172.09;7392574;19;20457;-84
2023/12/22 09:01:49;;;;;;;16.33;0.40;;;;;;;10.05;nan;99172.16;7394959;19;20006;-84
2023/12/22 09:04:16;;;;;;;0.10;0.10;;;;;;;9.79;nan;99177.66;7394271;19;20015;-83
2023/12/22 09:06:42;;;;;;;1.75;0.90;;;;;;;9.97;nan;99171.81;7393120;19;20052;-84
2023/12/22 09:09:09;;;;;;;1.65;0.55;;;;;;;10.07;nan;99164.84;7395933;19;20033;-83
2023/12/22 09:11:36;;;;;;;7.47;0.47;;;;;;;9.99;nan;99174.88;7393702;19;20030;-84
2023/12/22 09:14:04;;;;;;;2.78;0.00;;;;;;;9.46;nan;99166.88;7395178;19;20014;-85
2023/12/22 09:16:30;;;;;;;2.92;0.55;;;;;;;9.46;nan;99177.22;7392537;19;20014;-84
2023/12/22 09:18:56;;;;;;;0.10;0.10;;;;;;;9.29;nan;99156.78;7392541;19;20015;-85
2023/12/22 09:21:22;;;;;;;0.63;0.32;;;;;;;9.28;nan;99172.69;7395667;19;20014;-84
2023/12/22 09:23:49;;;;;;;0.20;0.20;;;;;;;9.30;nan;99170.19;7400914;19;20380;-85
2023/12/22 09:26:16;;;;;;;1.55;0.55;;;;;;;9.31;nan;99177.28;7402108;19;20014;-84
2023/12/22 09:28:42;;;;;;;0.70;0.70;;;;;;;9.28;nan;99166.34;7396470;19;20018;-84
2023/12/22 09:31:09;;;;;;;0.22;0.20;;;;;;;9.34;nan;99208.88;7396184;19;20078;-84
2023/12/22 09:33:35;;;;;;;0.10;0.10;;;;;;;9.33;nan;99171.22;7393068;19;20010;-84
2023/12/22 09:36:02;;;;;;;0.90;0.20;;;;;;;9.42;nan;99196.13;7394869;19;20025;-83
2023/12/22 09:38:29;;;;;;;0.55;0.30;;;;;;;9.38;nan;99198.31;7391435;19;20018;-82
2023/12/22 09:40:56;;;;;;;5.05;0.40;;;;;;;9.34;nan;99203.31;7401821;19;20010;-83
2023/12/22 09:43:22;;;;;;;4.25;0.13;;;;;;;9.87;nan;99189.91;7399412;19;20050;-82
2023/12/22 09:45:52;;;;;;;0.32;0.20;;;;;;;9.52;nan;99209.41;7393870;19;20010;-83
2023/12/22 09:48:26;;;;;;;0.10;0.10;;;;;;;9.58;nan;99206.69;7386548;19;20493;-82
2023/12/22 09:50:57;;;;;;;0.28;0.10;;;;;;;9.39;nan;99205.41;7388192;19;20022;-82
2023/12/22 09:53:24;;;;;;;1.13;0.43;;;;;;;9.43;nan;99212.31;7386798;19;20045;-83
2023/12/22 09:55:53;;;;;;;0.15;0.10;;;;;;;9.41;nan;99200.13;7390635;19;20007;-84
2023/12/22 09:58:20;;;;;;;3.30;0.15;;;;;;;9.41;nan;99191.81;7388655;19;20039;-83
2023/12/22 10:00:48;;;;;;;15.45;1.02;;;;;;;9.48;nan;99216.41;7391148;19;20472;-82
2023/12/22 10:03:16;;;;;;;1.95;0.20;;;;;;;9.45;nan;99209.03;7391139;19;20056;-82
2023/12/22 10:05:43;;;;;;;0.50;0.50;;;;;;;9.42;nan;99204.47;7396962;19;20429;-83
2023/12/22 10:08:12;;;;;;;3.53;0.85;;;;;;;9.40;nan;99226.41;7396760;19;20527;-83
2023/12/22 10:10:40;;;;;;;1.13;0.32;;;;;;;9.42;nan;99229.47;7392806;19;20026;-84
2023/12/22 10:13:09;;;;;;;0.00;0.00;;;;;;;9.42;nan;99226.69;7391890;19;20480;-83
2023/12/22 10:15:44;;;;;;;0.10;0.03;;;;;;;9.77;nan;99227.44;7392672;19;20010;-82
2023/12/22 10:18:11;;;;;;;3.88;0.50;;;;;;;10.14;nan;99214.53;7392403;19;20033;-83
2023/12/22 10:20:37;;;;;;;1.75;0.55;;;;;;;9.54;nan;99237.47;7392934;19;20029;-84
2023/12/22 10:23:03;;;;;;;0.00;0.00;;;;;;;9.86;nan;99238.41;7391945;19;20010;-83
2023/12/22 10:25:30;;;;;;;0.20;0.15;;;;;;;9.38;nan;99242.78;7391426;19;20002;-83
2023/12/22 10:27:56;;;;;;;0.47;0.38;;;;;;;9.66;nan;99246.72;7392404;19;20014;-83
2023/12/22 10:30:24;;;;;;;0.10;0.00;;;;;;;9.54;nan;99239.50;7392463;19;20066;-85
2023/12/22 10:32:53;;;;;;;0.20;0.10;;;;;;;9.51;nan;99246.00;7391387;19;20014;-83
2023/12/22 10:35:21;;;;;;;0.10;0.00;;;;;;;9.58;nan;99234.50;7392131;19;20086;-83
2023/12/22 10:37:47;;;;;;;3.10;0.70;;;;;;;9.61;nan;99227.97;7392606;19;20062;-83
2023/12/22 10:40:13;;;;;;;0.20;0.20;;;;;;;9.73;nan;99227.63;7391533;19;20007;-89
2023/12/22 10:42:41;;;;;;;2.75;0.52;;;;;;;9.93;nan;99222.09;7392938;19;20023;-90
2023/12/22 10:45:08;;;;;;;7.78;0.55;;;;;;;10.22;nan;99218.41;7395644;19;20003;-89
2023/12/22 10:47:34;;;;;;;1.27;0.75;;;;;;;10.35;nan;99216.03;7392585;19;20014;-91
2023/12/22 10:50:06;;;;;;;0.10;0.10;;;;;;;10.13;nan;99218.59;7396032;19;20014;-91
2023/12/22 10:52:32;;;;;;;10.10;0.20;;;;;;;10.09;nan;99233.91;7393620;19;20465;-91
2023/12/22 10:54:59;;;;;;;8.40;0.55;;;;;;;10.05;nan;99222.97;7392627;19;20010;-93
2023/12/22 10:57:27;;;;;;;2.35;0.22;;;;;;;10.03;nan;99233.84;7392631;19;20018;-92
2023/12/22 10:59:57;;;;;;;0.47;0.40;;;;;;;10.05;nan;99239.69;7394755;19;20014;-85
2023/12/22 11:02:31;;;;;;;0.32;0.20;;;;;;;10.03;nan;99208.06;7393479;19;20015;-87
2023/12/22 11:05:01;;;;;;;1.20;0.40;;;;;;;10.12;nan;99219.81;7370541;19;20021;-88
2023/12/22 11:07:29;;;;;;;0.10;0.00;;;;;;;10.26;nan;99227.34;7389655;19;20021;-83
2023/12/22 11:09:59;;;;;;;0.10;0.10;;;;;;;10.56;nan;99228.69;7397944;19;20031;-85
2023/12/22 11:12:28;;;;;;;0.10;0.10;;;;;;;10.10;nan;99219.50;7393031;19;20003;-87
2023/12/22 11:14:55;;;;;;;0.50;0.50;;;;;;;10.07;nan;99206.56;7395138;19;20014;-55
2023/12/22 11:17:22;;;;;;;0.13;0.10;;;;;;;10.13;nan;99213.03;7394070;19;20062;-56
2023/12/22 11:19:52;;;;;;;2.05;0.65;;;;;;;10.36;nan;99209.22;7394996;19;20082;-56
2023/12/22 11:22:21;;;;;;;4.40;0.32;;;;;;;9.95;nan;99224.38;7396015;19;20018;-55
2023/12/22 11:24:48;;;;;;;0.10;0.00;;;;;;;9.86;nan;99230.84;7395901;19;20006;-56
2023/12/22 11:27:19;;;;;;;4.13;0.30;;;;;;;10.65;nan;99211.03;7394827;19;20010;-55
2023/12/22 11:29:52;;;;;;;;;;;;;;;11.20;nan;99185.66;7392850;19;20007;-54
2023/12/22 11:32:19;;;;;;;0.10;0.10;;;;;;;10.05;nan;99225.03;7393868;19;19939;-55
2023/12/22 11:34:46;;;;;;;5.38;0.43;;;;;;;10.20;nan;99240.41;7396443;19;20022;-56
2023/12/22 11:37:15;;;;;;;1.75;0.20;;;;;;;10.15;nan;99232.78;7393467;19;20014;-55
2023/12/22 11:39:45;;;;;;;9.50;0.30;;;;;;;10.07;nan;99231.59;7391950;19;20511;-56
2023/12/22 11:42:17;;;;;;;5.97;0.38;;;;;;;11.09;nan;99203.06;7394374;19;20360;-56
2023/12/22 11:44:44;;;;;;;0.55;0.30;;;;;;;11.06;nan;99214.44;7394595;19;20014;-56
2023/12/22 11:47:14;;;;;;;1.27;0.20;;;;;;;11.10;nan;99221.31;7392188;19;20066;-56
2023/12/22 11:49:42;;;;;;;2.35;0.40;;;;;;;10.80;nan;99222.84;7393462;19;20021;-56